Time;durP1;ratioP1;P1;durP2;ratioP2;P2;SDS_P1;SDS_P2;PMS_P1;PMS_P2;Temp;Humidity;BMP_temperature;BMP_pressure;BME280_temperature;BME280_humidity;BME280_pressure;Samples;Min_cycle;Max_cycle;Signal;HPM_P1;HPM_P2
2022/07/07 00:01:31;;;;;;;6.90;5.22;;;;;;;21.82;50.15;101966.22;4986308;28;114062;-63
2022/07/07 00:04:00;;;;;;;10.82;5.50;;;;;;;21.82;50.25;101962.69;4985684;28;124853;-64
2022/07/07 00:06:28;;;;;;;8.80;5.35;;;;;;;21.82;50.25;101960.84;4987304;28;124621;-63
2022/07/07 00:08:56;;;;;;;7.40;5.57;;;;;;;21.81;50.26;101953.72;4978338;28;115279;-63
2022/07/07 00:11:24;;;;;;;8.98;5.32;;;;;;;21.82;50.53;101960.84;4983739;28;113941;-63
2022/07/07 00:13:51;;;;;;;9.25;5.88;;;;;;;21.83;50.47;101942.81;4973068;28;124415;-64
2022/07/07 00:16:19;;;;;;;8.88;5.78;;;;;;;21.84;50.67;101942.69;4977294;28;123833;-64
2022/07/07 00:18:46;;;;;;;8.65;5.50;;;;;;;21.85;50.61;101939.03;4978842;28;114948;-64
2022/07/07 00:21:14;;;;;;;7.82;5.43;;;;;;;21.86;50.55;101940.75;4993242;28;115053;-63
2022/07/07 00:23:42;;;;;;;8.82;6.00;;;;;;;21.86;50.70;101935.34;4984643;28;124390;-65
2022/07/07 00:26:09;;;;;;;9.95;5.63;;;;;;;21.86;50.75;101932.66;4984965;28;123698;-65
2022/07/07 00:28:36;;;;;;;7.88;5.40;;;;;;;21.87;50.66;101931.69;4988959;28;114156;-66
2022/07/07 00:31:04;;;;;;;9.77;5.82;;;;;;;21.89;50.72;101924.34;4977843;28;113852;-65
2022/07/07 00:33:31;;;;;;;9.00;5.80;;;;;;;21.91;50.75;101927.78;4991890;28;124291;-65
2022/07/07 00:35:58;;;;;;;9.38;6.00;;;;;;;21.91;50.77;101927.78;4978984;28;124031;-65
2022/07/07 00:38:25;;;;;;;9.27;5.90;;;;;;;21.92;50.64;101916.00;4979216;28;114282;-65
2022/07/07 00:40:53;;;;;;;7.93;6.15;;;;;;;21.91;50.84;101925.09;4981326;28;113626;-65
2022/07/07 00:43:21;;;;;;;9.32;6.15;;;;;;;21.92;50.83;101918.69;4986393;28;124434;-65
2022/07/07 00:45:50;;;;;;;9.00;6.07;;;;;;;21.93;50.78;101909.63;4992209;28;124157;-65
2022/07/07 00:48:19;;;;;;;9.43;6.22;;;;;;;21.94;50.79;101905.09;4991780;28;114652;-65
2022/07/07 00:50:47;;;;;;;10.07;6.65;;;;;;;21.93;50.90;101888.06;4992651;28;113577;-65
2022/07/07 00:53:15;;;;;;;9.20;6.07;;;;;;;21.93;50.81;101890.75;4990196;28;123797;-66
2022/07/07 00:55:42;;;;;;;11.73;6.75;;;;;;;21.94;50.99;101884.41;4987795;28;123995;-66
2022/07/07 00:58:10;;;;;;;8.30;5.65;;;;;;;21.93;51.08;101889.91;4977862;28;114852;-66
2022/07/07 01:00:37;;;;;;;9.95;6.75;;;;;;;21.94;51.14;101889.78;4982993;28;114303;-66
2022/07/07 01:03:05;;;;;;;8.75;6.35;;;;;;;21.95;50.94;101896.88;4991269;28;122831;-66
2022/07/07 01:05:32;;;;;;;9.40;6.13;;;;;;;21.95;50.95;101891.50;4987645;28;123875;-66
2022/07/07 01:08:02;;;;;;;10.00;5.75;;;;;;;21.95;50.96;101886.09;4987240;28;115589;-66
2022/07/07 01:10:31;;;;;;;8.23;5.45;;;;;;;21.96;51.17;101887.84;4989826;28;114852;-66
2022/07/07 01:13:02;;;;;;;8.77;6.10;;;;;;;21.98;51.08;101890.38;4979937;28;123881;-66
2022/07/07 01:15:29;;;;;;;9.23;5.43;;;;;;;21.99;50.98;101891.28;4971802;28;124233;-66
2022/07/07 01:17:57;;;;;;;8.73;5.40;;;;;;;21.97;51.06;101892.22;4983811;28;115123;-66
2022/07/07 01:20:25;;;;;;;9.43;5.28;;;;;;;21.96;51.05;101882.44;4991958;28;113734;-66
2022/07/07 01:22:54;;;;;;;9.60;5.75;;;;;;;21.96;51.14;101886.94;4976300;28;124120;-66
2022/07/07 01:25:22;;;;;;;7.32;5.10;;;;;;;21.95;51.19;101874.47;4986307;28;123554;-66
2022/07/07 01:27:50;;;;;;;8.05;5.22;;;;;;;21.92;51.30;101875.53;4976365;28;114186;-66
2022/07/07 01:30:19;;;;;;;7.88;5.10;;;;;;;21.93;51.32;101866.47;4978467;28;113897;-66
2022/07/07 01:32:46;;;;;;;7.82;5.10;;;;;;;21.94;51.25;101865.50;4976184;28;125035;-64
2022/07/07 01:35:13;;;;;;;8.52;5.00;;;;;;;21.94;51.36;101851.16;4971455;28;123951;-64
2022/07/07 01:37:40;;;;;;;7.85;4.95;;;;;;;21.93;51.32;101855.69;4982077;28;114875;-64
2022/07/07 01:40:08;;;;;;;7.85;5.00;;;;;;;21.92;51.47;101862.03;4977508;28;113520;-64
2022/07/07 01:42:35;;;;;;;7.32;5.05;;;;;;;21.92;51.49;101859.34;4983018;28;124138;-64
2022/07/07 01:45:02;;;;;;;7.45;4.93;;;;;;;21.92;51.65;101858.50;4983300;28;124307;-64
2022/07/07 01:47:31;;;;;;;7.75;5.28;;;;;;;21.92;51.68;101853.97;4979219;28;114698;-64
2022/07/07 01:49:58;;;;;;;7.45;4.90;;;;;;;21.93;51.67;101860.22;4978193;28;113799;-64
2022/07/07 01:52:25;;;;;;;7.97;5.32;;;;;;;21.92;51.74;101859.34;4982841;28;123893;-64
2022/07/07 01:54:52;;;;;;;7.32;5.13;;;;;;;21.94;51.75;101856.53;4975135;28;123780;-63
2022/07/07 01:57:19;;;;;;;6.43;4.70;;;;;;;21.95;51.83;101852.88;4982665;28;116042;-64
2022/07/07 01:59:46;;;;;;;7.22;4.88;;;;;;;21.94;51.82;101852.03;4979426;28;114076;-64
2022/07/07 02:02:13;;;;;;;8.43;4.88;;;;;;;21.93;51.96;101850.28;4974214;28;123271;-65
2022/07/07 02:04:41;;;;;;;7.68;4.82;;;;;;;21.93;52.05;101850.28;4979022;28;124932;-66
2022/07/07 02:07:08;;;;;;;7.75;4.55;;;;;;;21.92;52.00;101848.56;4984455;28;114116;-66
2022/07/07 02:09:35;;;;;;;8.40;5.00;;;;;;;21.92;52.06;101851.25;4980759;28;113894;-64
2022/07/07 02:12:03;;;;;;;7.30;4.40;;;;;;;21.91;52.04;101846.84;4990279;28;123772;-64
2022/07/07 02:14:30;;;;;;;7.18;4.47;;;;;;;21.92;52.24;101847.72;4988722;28;124058;-64
2022/07/07 02:16:57;;;;;;;7.53;4.57;;;;;;;21.92;52.23;101843.16;4986113;28;114274;-64
2022/07/07 02:19:25;;;;;;;8.57;5.07;;;;;;;21.91;52.33;101835.22;4971220;28;113790;-64
2022/07/07 02:21:53;;;;;;;7.07;4.72;;;;;;;21.92;52.27;101847.72;4990397;28;124285;-64
2022/07/07 02:24:20;;;;;;;7.63;4.70;;;;;;;21.92;52.29;101853.97;4987479;28;124520;-64
2022/07/07 02:26:47;;;;;;;7.20;4.85;;;;;;;21.93;52.47;101850.28;4968778;28;114603;-64
2022/07/07 02:29:14;;;;;;;9.20;4.28;;;;;;;21.95;52.43;101842.94;4981316;28;114460;-64
2022/07/07 02:31:41;;;;;;;6.93;4.07;;;;;;;21.96;52.52;101844.69;4975549;28;124316;-64
2022/07/07 02:34:09;;;;;;;7.47;4.65;;;;;;;21.99;52.67;101842.72;4990260;28;124101;-64
2022/07/07 02:36:36;;;;;;;10.57;4.80;;;;;;;21.99;52.96;101837.31;4985294;28;114014;-64
2022/07/07 02:39:03;;;;;;;7.50;4.30;;;;;;;21.99;52.71;101826.53;4968904;28;113919;-64
2022/07/07 02:41:30;;;;;;;6.40;4.47;;;;;;;21.96;52.79;101828.50;4984024;28;124539;-64
2022/07/07 02:43:57;;;;;;;8.65;4.40;;;;;;;21.96;52.97;101836.59;4989359;28;123751;-64
2022/07/07 02:46:24;;;;;;;7.63;3.80;;;;;;;21.95;52.87;101842.94;4976215;28;115277;-64
2022/07/07 02:48:52;;;;;;;6.65;3.85;;;;;;;21.95;53.10;101845.63;4983076;28;114949;-64
2022/07/07 02:51:19;;;;;;;6.40;3.80;;;;;;;21.94;52.99;101834.97;4971297;28;124356;-64
2022/07/07 02:53:46;;;;;;;8.65;4.07;;;;;;;21.95;53.11;101832.16;4982085;28;123985;-64
2022/07/07 02:56:13;;;;;;;7.28;3.83;;;;;;;21.94;53.13;101826.88;4969783;28;114288;-64
2022/07/07 02:58:40;;;;;;;5.82;4.18;;;;;;;21.93;53.44;101834.09;4982654;28;113700;-66
2022/07/07 03:01:07;;;;;;;6.93;4.20;;;;;;;21.95;53.66;101851.03;4976682;28;124154;-65
2022/07/07 03:03:36;;;;;;;6.65;3.80;;;;;;;21.93;53.65;101861.09;4990158;28;123710;-66
2022/07/07 03:06:04;;;;;;;6.70;4.00;;;;;;;21.91;53.75;101862.19;4985144;28;114695;-66
2022/07/07 03:08:31;;;;;;;4.88;2.58;;;;;;;21.83;53.86;101860.09;4974249;28;114114;-65
2022/07/07 03:10:59;;;;;;;3.95;2.30;;;;;;;21.74;53.76;101844.59;4979181;28;124022;-65
2022/07/07 03:13:26;;;;;;;3.75;2.30;;;;;;;21.65;53.80;101853.41;4980117;28;123803;-65
2022/07/07 03:15:55;;;;;;;1.90;1.70;;;;;;;21.54;53.75;101849.66;4983962;28;113976;-65
2022/07/07 03:18:22;;;;;;;2.15;1.50;;;;;;;21.47;53.78;101848.41;4988220;28;114000;-66
2022/07/07 03:20:51;;;;;;;3.47;1.60;;;;;;;21.40;53.85;101841.75;4977208;28;124203;-65
2022/07/07 03:23:18;;;;;;;3.30;1.60;;;;;;;21.33;54.09;101851.25;4971025;28;124710;-67
2022/07/07 03:25:45;;;;;;;4.35;1.60;;;;;;;21.26;53.94;101849.97;4983267;28;113546;-66
2022/07/07 03:28:13;;;;;;;4.30;1.85;;;;;;;21.17;54.13;101841.63;4988317;28;114136;-67
2022/07/07 03:30:40;;;;;;;3.38;1.58;;;;;;;21.10;54.19;101851.13;4979091;28;123920;-65
2022/07/07 03:33:07;;;;;;;2.60;1.60;;;;;;;21.05;54.37;101853.28;4985995;28;124409;-65
2022/07/07 03:35:34;;;;;;;4.25;1.70;;;;;;;21.02;54.32;101853.53;4976534;28;115214;-66
2022/07/07 03:38:02;;;;;;;2.67;1.60;;;;;;;20.97;54.43;101850.31;4969236;28;115472;-65
2022/07/07 03:40:29;;;;;;;3.40;1.77;;;;;;;20.92;54.52;101841.69;4970703;28;124607;-66
2022/07/07 03:42:56;;;;;;;4.00;1.85;;;;;;;20.89;54.62;101841.91;4985658;28;124483;-65
2022/07/07 03:45:24;;;;;;;3.17;1.65;;;;;;;20.86;54.88;101842.16;4977129;28;114505;-65
2022/07/07 03:47:51;;;;;;;2.15;1.95;;;;;;;20.86;55.01;101842.16;4973781;28;113805;-65
2022/07/07 03:50:18;;;;;;;3.95;1.73;;;;;;;20.83;55.08;101843.22;4981071;28;124485;-65
2022/07/07 03:52:45;;;;;;;3.30;1.92;;;;;;;20.80;54.91;101836.22;4968366;28;124437;-65
2022/07/07 03:55:12;;;;;;;3.10;1.70;;;;;;;20.79;55.14;101842.59;4983925;28;114411;-65
2022/07/07 03:57:41;;;;;;;3.10;1.88;;;;;;;20.79;55.24;101842.59;4987044;28;114013;-65
2022/07/07 04:00:09;;;;;;;4.28;1.90;;;;;;;20.78;55.29;101842.72;4986367;28;124570;-65
2022/07/07 04:02:36;;;;;;;2.90;1.77;;;;;;;20.75;55.35;101841.06;4986076;28;124687;-64
2022/07/07 04:05:04;;;;;;;3.55;1.90;;;;;;;20.74;55.54;101834.00;4987025;28;114369;-63
2022/07/07 04:07:33;;;;;;;3.33;2.03;;;;;;;20.72;55.58;101837.75;4987085;28;113704;-64
2022/07/07 04:10:02;;;;;;;4.35;2.15;;;;;;;20.71;55.77;101833.34;4979794;28;124078;-65
2022/07/07 04:12:29;;;;;;;3.80;2.15;;;;;;;20.69;55.89;101830.75;4968272;28;124546;-65
2022/07/07 04:14:57;;;;;;;5.05;2.10;;;;;;;20.67;56.01;101830.00;4990001;28;114319;-65
2022/07/07 04:17:24;;;;;;;4.72;2.20;;;;;;;20.66;56.27;101830.97;4977126;28;112790;-65
2022/07/07 04:19:51;;;;;;;4.20;2.50;;;;;;;20.66;56.17;101836.34;4987811;28;124054;-65
2022/07/07 04:22:18;;;;;;;3.50;2.30;;;;;;;20.66;56.45;101835.50;4989161;28;124292;-65
2022/07/07 04:24:46;;;;;;;6.03;2.42;;;;;;;20.66;56.57;101830.97;4988082;28;114130;-65
2022/07/07 04:27:13;;;;;;;3.42;2.60;;;;;;;20.65;56.55;101828.41;4989905;28;116271;-65
2022/07/07 04:29:40;;;;;;;3.13;2.28;;;;;;;20.65;56.67;101826.56;4987233;28;123877;-65
2022/07/07 04:32:08;;;;;;;3.97;2.50;;;;;;;20.65;56.81;101823.88;4989097;28;122638;-66
2022/07/07 04:34:35;;;;;;;3.38;2.40;;;;;;;20.65;56.94;101829.25;4990158;28;114162;-66
2022/07/07 04:37:02;;;;;;;3.67;2.70;;;;;;;20.64;56.95;101827.53;4992557;28;114313;-67
2022/07/07 04:39:29;;;;;;;2.85;2.28;;;;;;;20.64;57.01;101832.91;4990433;28;124372;-66
2022/07/07 04:41:56;;;;;;;5.50;2.47;;;;;;;20.63;57.19;101835.75;4990469;28;124350;-65
2022/07/07 04:44:24;;;;;;;3.38;2.33;;;;;;;20.61;57.28;101842.09;4991209;28;114223;-64
2022/07/07 04:46:52;;;;;;;3.35;2.33;;;;;;;20.59;57.35;101824.31;4989967;28;114035;-66
2022/07/07 04:49:19;;;;;;;3.28;2.38;;;;;;;20.58;57.23;101831.50;4990704;28;123086;-66
2022/07/07 04:51:49;;;;;;;4.00;2.25;;;;;;;20.58;57.69;101844.09;4991516;28;123628;-66
2022/07/07 04:54:16;;;;;;;2.63;2.10;;;;;;;20.57;57.74;101837.88;4990635;28;114213;-65
2022/07/07 04:56:43;;;;;;;3.17;2.35;;;;;;;20.58;57.74;101844.09;4990070;28;113816;-66
2022/07/07 04:59:11;;;;;;;3.15;2.17;;;;;;;20.55;57.76;101844.31;4990717;28;123372;-66
2022/07/07 05:01:39;;;;;;;6.78;2.33;;;;;;;20.54;57.88;101842.59;4991086;28;124468;-65
2022/07/07 05:04:06;;;;;;;3.42;2.03;;;;;;;20.52;57.86;101847.22;4990460;28;114377;-66
2022/07/07 05:06:33;;;;;;;3.75;1.90;;;;;;;20.51;57.92;101864.34;4990244;28;113858;-66
2022/07/07 05:09:00;;;;;;;5.82;1.73;;;;;;;20.50;57.99;101855.41;4989614;28;123134;-66
2022/07/07 05:11:28;;;;;;;4.88;2.08;;;;;;;20.49;58.09;101855.50;4983353;28;123842;-66
2022/07/07 05:13:55;;;;;;;2.80;1.98;;;;;;;20.49;57.92;101871.66;4970818;28;115032;-66
2022/07/07 05:16:23;;;;;;;2.28;1.58;;;;;;;20.49;58.08;101874.34;4989108;28;114899;-66
2022/07/07 05:18:50;;;;;;;4.93;2.08;;;;;;;20.48;58.03;101881.56;4991141;28;124104;-66
2022/07/07 05:21:18;;;;;;;4.28;2.05;;;;;;;20.49;58.19;101877.03;4991200;28;122664;-66
2022/07/07 05:23:45;;;;;;;7.00;1.90;;;;;;;20.49;58.04;101877.03;4978433;28;114206;-66
2022/07/07 05:26:12;;;;;;;4.72;1.70;;;;;;;20.48;58.05;101881.56;4988159;28;113875;-66
2022/07/07 05:28:42;;;;;;;3.72;1.60;;;;;;;20.48;57.95;101891.50;4989087;28;124049;-66
2022/07/07 05:31:12;;;;;;;3.97;1.60;;;;;;;20.47;58.16;101884.38;4972745;28;124038;-70
2022/07/07 05:33:41;;;;;;;3.30;1.48;;;;;;;20.47;58.19;101884.38;4978936;28;114415;-65
2022/07/07 05:36:09;;;;;;;3.53;1.42;;;;;;;20.48;58.11;101883.41;4974439;28;112940;-65
2022/07/07 05:38:36;;;;;;;3.22;1.20;;;;;;;20.48;58.10;101886.09;4980371;28;123990;-65
2022/07/07 05:41:03;;;;;;;2.00;1.23;;;;;;;20.48;58.13;101891.50;4984346;28;124235;-65
2022/07/07 05:43:31;;;;;;;2.85;1.20;;;;;;;20.49;58.19;101895.88;4974032;28;113919;-66
2022/07/07 05:45:58;;;;;;;3.78;1.20;;;;;;;20.52;58.26;101904.59;4980129;28;113457;-66
2022/07/07 05:48:26;;;;;;;3.22;1.20;;;;;;;20.54;57.98;101907.19;4972633;28;123864;-66
2022/07/07 05:50:53;;;;;;;1.55;1.00;;;;;;;20.55;57.91;101909.78;4990722;28;122664;-67
2022/07/07 05:53:21;;;;;;;4.63;1.27;;;;;;;20.57;58.02;101912.38;4989912;28;114623;-66
2022/07/07 05:55:48;;;;;;;3.85;1.10;;;;;;;20.60;57.82;101912.16;4991076;28;113702;-66
2022/07/07 05:58:15;;;;;;;3.20;1.20;;;;;;;20.61;57.75;101919.28;4989505;28;124674;-66
2022/07/07 06:00:43;;;;;;;5.30;1.80;;;;;;;20.61;57.79;101935.44;4991693;28;123953;-66
2022/07/07 06:03:10;;;;;;;5.85;1.40;;;;;;;20.60;57.55;101933.72;4990979;28;115723;-67
2022/07/07 06:05:38;;;;;;;6.10;1.27;;;;;;;20.55;57.78;101935.81;4969729;28;115363;-66
2022/07/07 06:08:06;;;;;;;5.03;1.08;;;;;;;20.49;57.56;101941.63;4988927;28;124693;-67
2022/07/07 06:10:34;;;;;;;6.10;1.58;;;;;;;20.39;57.62;101942.28;4991359;28;124144;-67
2022/07/07 06:13:01;;;;;;;6.55;1.10;;;;;;;20.32;57.56;101948.19;4988764;28;114299;-67
2022/07/07 06:15:33;;;;;;;3.20;0.70;;;;;;;20.27;57.84;101959.28;4988963;28;114292;-67
2022/07/07 06:18:01;;;;;;;3.03;0.90;;;;;;;20.23;57.93;101949.69;4971021;28;124128;-65
2022/07/07 06:20:37;;;;;;;4.00;1.00;;;;;;;20.22;58.10;101958.72;4984016;28;123653;-65
2022/07/07 06:23:05;;;;;;;2.67;1.00;;;;;;;20.22;58.18;101961.41;4974651;28;114329;-67
2022/07/07 06:25:33;;;;;;;3.35;1.08;;;;;;;20.24;58.41;101970.22;4989046;28;114533;-66
2022/07/07 06:28:00;;;;;;;4.63;1.17;;;;;;;20.30;58.48;101975.19;4989592;28;124100;-66
2022/07/07 06:30:28;;;;;;;4.38;0.93;;;;;;;20.35;58.68;101973.06;4990856;28;124218;-66
2022/07/07 06:32:55;;;;;;;2.53;1.20;;;;;;;20.41;58.37;101959.16;4988636;28;114238;-66
2022/07/07 06:35:24;;;;;;;5.05;1.30;;;;;;;20.48;58.36;101961.47;4981101;28;114001;-66
2022/07/07 06:37:53;;;;;;;6.30;1.50;;;;;;;20.52;58.16;101979.13;4967757;28;124740;-67
2022/07/07 06:40:21;;;;;;;9.27;1.25;;;;;;;20.59;58.23;101980.41;4990479;28;124025;-66
2022/07/07 06:42:48;;;;;;;4.22;1.10;;;;;;;20.64;57.79;101993.56;4974407;28;114526;-66
2022/07/07 06:45:23;;;;;;;4.78;0.95;;;;;;;20.67;57.63;101999.63;4976707;28;116620;-66
2022/07/07 06:47:52;;;;;;;6.53;1.27;;;;;;;20.71;57.23;102006.50;4988890;28;124110;-66
2022/07/07 06:50:24;;;;;;;5.28;1.10;;;;;;;20.76;57.00;102006.19;4990435;28;124069;-66
2022/07/07 06:52:51;;;;;;;4.43;1.13;;;;;;;20.78;56.90;101997.03;4990528;28;115017;-66
2022/07/07 06:55:18;;;;;;;7.55;1.13;;;;;;;20.77;56.65;101995.28;4976458;28;115557;-65
2022/07/07 06:57:46;;;;;;;7.28;1.38;;;;;;;20.75;56.80;102012.53;4979326;28;123741;-65
2022/07/07 07:00:14;;;;;;;4.22;1.30;;;;;;;20.71;56.40;102011.88;4970173;28;124727;-65
2022/07/07 07:02:44;;;;;;;5.03;0.90;;;;;;;20.66;56.20;102016.72;4977079;28;114406;-66
2022/07/07 07:05:12;;;;;;;3.65;0.70;;;;;;;20.60;56.09;102026.09;4988226;28;114037;-65
2022/07/07 07:07:39;;;;;;;6.18;1.00;;;;;;;20.53;56.16;102024.78;4986395;28;124670;-65
2022/07/07 07:10:07;;;;;;;2.15;0.80;;;;;;;20.49;56.37;102017.84;4970535;28;124579;-65
2022/07/07 07:12:34;;;;;;;6.00;1.17;;;;;;;20.46;56.74;102022.59;4970085;28;114222;-65
2022/07/07 07:15:01;;;;;;;2.50;0.90;;;;;;;20.42;56.82;102028.19;4988704;28;113888;-64
2022/07/07 07:17:29;;;;;;;2.58;0.80;;;;;;;20.43;56.63;102029.88;4987274;28;124459;-64
2022/07/07 07:19:56;;;;;;;3.83;1.00;;;;;;;20.47;56.67;102035.06;4988830;28;124051;-65
2022/07/07 07:22:23;;;;;;;4.35;1.00;;;;;;;20.52;56.87;102027.56;4989192;28;114574;-65
2022/07/07 07:24:52;;;;;;;5.07;0.77;;;;;;;20.62;57.12;102034.06;4974765;28;113977;-65
2022/07/07 07:27:19;;;;;;;3.20;0.93;;;;;;;20.70;57.08;102041.59;4989051;28;124070;-64
2022/07/07 07:29:46;;;;;;;5.57;0.90;;;;;;;20.74;56.87;102033.22;4974492;28;123936;-65
2022/07/07 07:32:14;;;;;;;3.40;0.80;;;;;;;20.76;56.52;102036.66;4990519;28;114627;-65
2022/07/07 07:34:41;;;;;;;3.80;0.73;;;;;;;20.79;56.43;102041.84;4973728;28;113608;-64
2022/07/07 07:37:08;;;;;;;3.95;0.77;;;;;;;20.84;56.22;102048.75;4978206;28;124377;-65
2022/07/07 07:39:35;;;;;;;1.83;0.70;;;;;;;20.88;56.36;102055.63;4984071;28;124072;-65
2022/07/07 07:42:03;;;;;;;4.00;0.80;;;;;;;20.95;56.38;102056.94;4987291;28;116356;-64
2022/07/07 07:47:16;;;;;;;6.15;1.17;;;;;;;21.04;56.19;102061.69;4987132;28;124256;-65
2022/07/07 07:49:43;;;;;;;7.38;1.40;;;;;;;21.04;56.01;102072.47;4986165;28;123777;-65
2022/07/07 07:52:10;;;;;;;3.17;0.90;;;;;;;21.02;55.73;102063.63;4968245;28;114618;-66
2022/07/07 07:54:38;;;;;;;3.47;0.80;;;;;;;20.93;55.83;102072.34;4983246;28;113794;-66
2022/07/07 07:57:06;;;;;;;3.95;0.88;;;;;;;20.86;55.72;102076.44;4987126;28;123350;-66
2022/07/07 07:59:33;;;;;;;2.75;0.88;;;;;;;20.84;55.94;102075.69;4977250;28;124251;-65
2022/07/07 08:02:00;;;;;;;2.08;0.90;;;;;;;20.88;56.41;102071.78;4985894;28;114311;-65
2022/07/07 08:04:27;;;;;;;2.50;1.00;;;;;;;20.96;56.29;102069.41;4975685;28;114305;-66
2022/07/07 08:06:55;;;;;;;4.55;0.90;;;;;;;21.02;56.21;102069.03;4979799;28;124133;-65
2022/07/07 08:09:22;;;;;;;2.95;1.00;;;;;;;21.08;56.03;102068.59;4989081;28;123622;-65
2022/07/07 08:11:49;;;;;;;3.28;0.98;;;;;;;21.17;56.01;102073.31;4992583;28;113259;-67
2022/07/07 08:14:17;;;;;;;3.03;0.82;;;;;;;21.32;55.86;102065.09;4974453;28;113883;-65
2022/07/07 08:16:44;;;;;;;5.35;0.80;;;;;;;21.45;55.57;102063.28;4971334;28;124139;-66
2022/07/07 08:19:11;;;;;;;2.90;0.80;;;;;;;21.60;55.34;102069.41;4972405;28;123961;-65
2022/07/07 08:21:39;;;;;;;2.40;0.90;;;;;;;21.74;55.47;102081.91;4982625;28;114655;-66
2022/07/07 08:24:07;;;;;;;3.30;0.90;;;;;;;21.87;55.38;102077.34;4973153;28;114219;-66
2022/07/07 08:26:34;;;;;;;2.97;0.50;;;;;;;22.01;54.63;102078.16;4977158;28;124979;-66
2022/07/07 08:29:01;;;;;;;3.95;0.90;;;;;;;22.06;54.12;102082.25;4992100;28;124604;-66
2022/07/07 08:31:28;;;;;;;5.93;0.93;;;;;;;22.06;53.78;102084.94;4984819;28;115251;-65
2022/07/07 08:33:55;;;;;;;4.10;0.90;;;;;;;22.01;53.50;102084.41;4972415;28;113738;-66
2022/07/07 08:36:23;;;;;;;6.18;1.77;;;;;;;21.97;53.56;102089.16;4977145;28;124264;-66
2022/07/07 08:38:51;;;;;;;4.15;1.15;;;;;;;21.97;53.58;102083.78;4981763;28;124021;-66
2022/07/07 08:41:18;;;;;;;4.93;1.00;;;;;;;21.99;53.35;102088.22;4986700;28;114263;-66
2022/07/07 08:43:45;;;;;;;2.88;0.70;;;;;;;22.00;53.21;102087.22;4978716;28;113713;-65
2022/07/07 08:46:14;;;;;;;4.65;0.80;;;;;;;22.05;53.50;102085.03;4990180;28;124209;-66
2022/07/07 08:48:41;;;;;;;2.60;1.10;;;;;;;22.12;53.34;102092.56;4983122;28;123741;-66
2022/07/07 08:51:08;;;;;;;1.67;0.80;;;;;;;22.17;53.00;102089.53;4970349;28;114865;-66
2022/07/07 08:53:37;;;;;;;4.68;0.88;;;;;;;22.22;52.74;102087.34;4971522;28;114109;-66
2022/07/07 08:56:07;;;;;;;4.18;0.75;;;;;;;22.23;52.52;102089.09;4969295;28;124215;-66
2022/07/07 08:58:36;;;;;;;3.70;1.00;;;;;;;22.19;52.34;102101.09;4987636;28;124485;-65
2022/07/07 09:01:23;;;;;;;3.55;0.90;;;;;;;22.17;52.42;102103.03;4990359;28;114343;-65
2022/07/07 09:03:51;;;;;;;4.93;1.23;;;;;;;22.14;52.16;102111.34;4984193;28;113984;-66
2022/07/07 09:06:18;;;;;;;3.03;0.90;;;;;;;22.12;52.40;102113.31;4978922;28;124291;-66
2022/07/07 09:08:52;;;;;;;5.70;1.38;;;;;;;22.11;52.54;102117.84;4991225;28;123947;-66
2022/07/07 09:11:30;;;;;;;4.90;1.13;;;;;;;22.12;52.61;102129.50;4989428;28;114503;-66
2022/07/07 09:14:14;;;;;;;3.45;0.80;;;;;;;22.15;52.53;102123.84;4978799;28;113803;-66
2022/07/07 09:16:43;;;;;;;4.53;0.90;;;;;;;22.17;52.51;102130.03;4969590;28;124131;-65
2022/07/07 09:19:19;;;;;;;3.92;0.90;;;;;;;22.15;52.19;102140.03;4984830;28;124166;-66
2022/07/07 09:21:47;;;;;;;3.83;1.30;;;;;;;22.07;52.26;102153.25;4990267;28;115588;-66
2022/07/07 09:24:14;;;;;;;2.60;0.98;;;;;;;21.95;52.38;102150.47;4989397;28;114805;-65
2022/07/07 09:26:47;;;;;;;4.00;1.00;;;;;;;21.79;52.57;102155.25;4991767;28;123758;-65
2022/07/07 09:29:18;;;;;;;3.30;0.85;;;;;;;21.70;52.86;102155.88;4988486;28;124184;-65
2022/07/07 09:31:52;;;;;;;4.40;1.25;;;;;;;21.68;53.34;102163.22;4978916;28;114621;-65
2022/07/07 09:34:21;;;;;;;1.55;0.85;;;;;;;21.69;53.40;102154.19;4975025;28;113946;-65
2022/07/07 09:39:48;;;;;;;2.40;0.80;;;;;;;21.79;53.28;102149.84;4989639;28;124281;-65
2022/07/07 09:42:34;;;;;;;2.78;0.80;;;;;;;21.84;53.06;102163.88;4978022;28;114731;-65
2022/07/07 09:45:11;;;;;;;4.07;0.93;;;;;;;21.91;53.04;102175.94;4989297;28;114702;-65
2022/07/07 09:47:38;;;;;;;1.20;0.65;;;;;;;21.93;52.44;102187.50;4990627;28;124157;-66
2022/07/07 09:50:10;;;;;;;3.47;0.57;;;;;;;21.90;52.06;102174.22;4986806;28;124550;-65
2022/07/07 09:52:40;;;;;;;3.72;1.20;;;;;;;21.85;52.03;102181.78;4970105;28;114140;-64
2022/07/07 09:55:10;;;;;;;3.38;0.77;;;;;;;21.83;52.09;102189.13;4984291;28;113863;-64
2022/07/07 09:57:39;;;;;;;3.45;0.90;;;;;;;21.85;52.14;102187.19;4968843;28;123986;-64
2022/07/07 10:00:07;;;;;;;4.53;0.85;;;;;;;21.92;52.08;102193.00;4972175;28;123581;-64
2022/07/07 10:02:38;;;;;;;2.90;0.70;;;;;;;22.02;52.30;102187.78;4972074;28;114947;-65
2022/07/07 10:05:06;;;;;;;2.00;0.60;;;;;;;22.13;52.28;102204.06;4973684;28;114211;-64
2022/07/07 10:07:34;;;;;;;3.50;0.90;;;;;;;22.22;51.95;102200.69;4968265;28;124806;-64
2022/07/07 10:10:07;;;;;;;1.88;0.70;;;;;;;22.27;51.77;102209.34;4979761;28;123860;-64
2022/07/07 10:12:44;;;;;;;2.25;0.70;;;;;;;22.25;51.54;102213.13;4976277;28;115303;-65
2022/07/07 10:15:11;;;;;;;2.05;0.57;;;;;;;22.18;51.64;102226.19;4988924;28;115338;-65
2022/07/07 10:17:41;;;;;;;1.75;0.60;;;;;;;22.12;51.97;102211.31;4972276;28;124096;-65
2022/07/07 10:20:09;;;;;;;2.38;0.50;;;;;;;22.09;51.94;102211.50;4980852;28;123751;-65
2022/07/07 10:22:37;;;;;;;0.90;0.50;;;;;;;22.08;51.93;102217.91;4989785;28;113999;-64
2022/07/07 10:25:08;;;;;;;0.95;0.50;;;;;;;22.09;52.34;102216.06;4980838;28;113900;-64
2022/07/07 10:27:40;;;;;;;3.80;0.77;;;;;;;22.15;52.34;102216.50;4982571;28;124207;-64
2022/07/07 10:30:07;;;;;;;2.50;0.80;;;;;;;22.26;52.56;102225.66;4990082;28;124594;-66
2022/07/07 10:32:51;;;;;;;0.80;0.60;;;;;;;22.39;52.70;102217.53;4976931;28;114387;-64
2022/07/07 10:35:18;;;;;;;3.25;1.10;;;;;;;22.50;52.57;102231.09;4977377;28;113834;-65
2022/07/07 10:37:52;;;;;;;1.60;0.70;;;;;;;22.61;52.52;102228.47;4972836;28;124160;-65
2022/07/07 10:40:20;;;;;;;2.15;0.80;;;;;;;22.72;52.33;102220.44;4990557;28;123843;-65
2022/07/07 10:43:21;;;;;;;1.52;0.88;;;;;;;22.82;52.21;102231.41;4988856;28;114109;-64
2022/07/07 10:45:51;;;;;;;2.28;0.90;;;;;;;22.88;51.78;102236.34;4979744;28;114271;-65
2022/07/07 10:48:43;;;;;;;1.45;0.70;;;;;;;22.86;51.55;102238.28;4973208;28;123888;-64
2022/07/07 10:51:58;;;;;;;1.63;0.90;;;;;;;22.86;51.42;102237.44;4975640;28;124591;-65
2022/07/07 10:54:37;;;;;;;2.00;0.80;;;;;;;22.84;51.48;102255.63;4980716;28;114291;-65
2022/07/07 10:57:07;;;;;;;3.30;0.70;;;;;;;22.82;51.16;102257.56;4973020;28;115068;-65
2022/07/07 10:59:56;;;;;;;1.95;0.50;;;;;;;22.76;51.08;102258.03;4976033;28;124397;-65
2022/07/07 11:02:50;;;;;;;2.97;0.65;;;;;;;22.63;51.11;102264.31;4976222;28;123921;-65
2022/07/07 11:05:17;;;;;;;5.68;0.80;;;;;;;22.52;51.30;102272.34;4973238;28;115057;-65
2022/07/07 11:07:56;;;;;;;2.20;0.70;;;;;;;22.41;51.58;102274.97;4973168;28;115168;-66
2022/07/07 11:10:44;;;;;;;1.67;0.80;;;;;;;22.31;51.93;102270.25;4990521;28;123823;-64
2022/07/07 11:13:21;;;;;;;1.92;0.75;;;;;;;22.29;52.08;102272.19;4970637;28;124241;-64
2022/07/07 11:15:50;;;;;;;2.67;0.80;;;;;;;22.34;52.39;102280.81;4981873;28;114385;-64
2022/07/07 11:18:19;;;;;;;1.25;0.60;;;;;;;22.44;52.69;102281.03;4969236;28;114719;-64
2022/07/07 11:21:01;;;;;;;2.90;0.80;;;;;;;22.60;52.91;102283.44;4970611;28;124556;-65
2022/07/07 11:23:49;;;;;;;2.75;0.68;;;;;;;22.80;52.64;102275.72;4971892;28;124317;-64
2022/07/07 11:26:19;;;;;;;1.17;0.60;;;;;;;22.96;52.38;102287.09;4970682;28;113195;-65
2022/07/07 11:28:50;;;;;;;1.90;0.60;;;;;;;23.10;52.07;102278.88;4968529;28;113508;-65
2022/07/07 11:31:18;;;;;;;2.05;0.70;;;;;;;23.23;51.61;102286.06;4984224;28;124032;-64